Plainfield, IA

5:09 AM CST on December 27, 2014 (GMT -0600)
Wartburg College Observatory | Change Station
CLOSE
Current Station
Personal Weather Station
Location: Waverly, IA
Elevation: 928 ft
Nearby Weather Stations

Elev 928 ft 42.73 °N, 92.49 °W | Updated 5 seconds ago

Overcast
Overcast
31.9 °F
Feels Like 22 °F
N
12.7
Wind Variable Wind from West
Gusts 12.7 mph

Today
High -- | Low -- °F
--% Chance of Precip.
Yesterday
High -- | Low -- °F
Precip. -- in
7:40 AM 4:42 PM
Waxing Crescent, 35% visible
Pressure 29.91 in
Visibility 9.0 miles
Clouds Overcast 500 ft
Windchill 22 °F
Dew Point 31 °F
Humidity 96%
Rainfall 0.04 in
Snow Depth Not available.
UV 0.0 out of 12
Pollen .10 out of 12
Air Quality Not available.
Flu Activity Not available.
METAR KCCY 271055Z AUTO 30010G15KT 9SM OVC005 M00/M00 A2991 RMK AO2

More Conditions Fewer Conditions

Pressure 29.91 in
Visibility 9.0 miles
Clouds Overcast 500 ft
Windchill 22 °F
Dew Point 31 °F
Humidity 96%
Rainfall 0.04 in
Snow Depth Not available.
UV 0.0 out of 12
Pollen .10 out of 12
Air Quality Not available.
Flu Activity Not available.
METAR KCCY 271055Z AUTO 30010G15KT 9SM OVC005 M00/M00 A2991 RMK AO2

More Conditions Fewer Conditions

10-Day Weather Forecast

Almanac

Astronomy

Dec. 27, 2014 Rise Set
Actual Time
Civil Twilight
Nautical Twilight
Astronomical Twilight
Moon
Length of Visible Light
Length of Day
Tomorrow will be .
, % of the Moon is Illuminated

Today's Extremes

State Highs State Lows

Community

WunderPhotos

Upload Photos

1,780,878 photos uploaded!

WunderBlogs® & News

Nearby

Air Quality

  Air Quality AQ Index Pollutant
Not available.

Snow Depth

Station Depth Elevation

Earthquake Activity

City Distance Mag. Time & Date
Minimum magnitude displayed is 2.5.

Coastal Water Temperatures

Place Temperature

Nearby Weather Stations